createdAt,value
2022-09-12T00:00:36.025Z,971.64
2022-09-12T00:01:36.327Z,971.60
2022-09-12T00:02:36.558Z,971.59
2022-09-12T00:03:36.798Z,971.55
2022-09-12T00:04:37.038Z,971.52
2022-09-12T00:05:37.288Z,971.52
2022-09-12T00:06:37.533Z,971.56
2022-09-12T00:07:37.780Z,971.57
2022-09-12T00:08:38.021Z,971.54
2022-09-12T00:09:38.259Z,971.52
2022-09-12T00:10:38.508Z,971.54
2022-09-12T00:11:38.740Z,971.51
2022-09-12T00:12:38.981Z,971.46
2022-09-12T00:13:41.680Z,971.46
2022-09-12T00:14:39.548Z,971.43
2022-09-12T00:15:39.781Z,971.41
2022-09-12T00:16:40.098Z,971.41
2022-09-12T00:17:40.342Z,971.43
2022-09-12T00:18:40.622Z,971.38
2022-09-12T00:19:40.862Z,971.40
2022-09-12T00:20:41.103Z,971.39
2022-09-12T00:21:41.344Z,971.39
2022-09-12T00:22:41.593Z,971.38
2022-09-12T00:23:41.834Z,971.37
2022-09-12T00:24:42.083Z,971.33
2022-09-12T00:25:42.324Z,971.36
2022-09-12T00:26:42.566Z,971.30
2022-09-12T00:27:42.819Z,971.37
2022-09-12T00:28:43.062Z,971.35
2022-09-12T00:29:43.306Z,971.34
2022-09-12T00:30:43.555Z,971.35
2022-09-12T00:31:43.811Z,971.32
2022-09-12T00:32:44.136Z,971.33
2022-09-12T00:33:44.348Z,971.32
2022-09-12T00:34:44.587Z,971.34
2022-09-12T00:35:44.828Z,971.36
2022-09-12T00:36:45.077Z,971.35
2022-09-12T00:37:45.319Z,971.37
2022-09-12T00:38:46.687Z,971.35
2022-09-12T00:39:45.885Z,971.36
2022-09-12T00:40:46.137Z,971.38
2022-09-12T00:41:46.371Z,971.35
2022-09-12T00:42:46.620Z,971.36
2022-09-12T00:43:46.859Z,971.32
2022-09-12T00:44:47.100Z,971.29
2022-09-12T00:45:47.368Z,971.36
2022-09-12T00:46:47.590Z,971.32
2022-09-12T00:47:47.840Z,971.34
2022-09-12T00:48:48.081Z,971.35
2022-09-12T00:49:48.321Z,971.35
2022-09-12T00:50:48.562Z,971.35
2022-09-12T00:51:48.802Z,971.34
2022-09-12T00:52:49.042Z,971.35
2022-09-12T00:53:49.292Z,971.34
2022-09-12T00:54:49.532Z,971.32
2022-09-12T00:55:49.786Z,971.31
2022-09-12T00:56:50.029Z,971.29
2022-09-12T00:57:50.263Z,971.26
2022-09-12T00:58:50.505Z,971.27
2022-09-12T00:59:50.744Z,971.21
2022-09-12T01:00:51.050Z,971.17
2022-09-12T01:01:51.405Z,971.18
2022-09-12T01:02:51.525Z,971.19
2022-09-12T01:03:51.774Z,971.15
2022-09-12T01:04:52.016Z,971.15
2022-09-12T01:05:52.266Z,971.14
2022-09-12T01:06:52.507Z,971.09
2022-09-12T01:07:52.757Z,971.10
2022-09-12T01:08:52.996Z,971.12
2022-09-12T01:09:53.238Z,971.08
2022-09-12T01:10:53.496Z,971.10
2022-09-12T01:11:53.734Z,971.09
2022-09-12T01:12:53.977Z,971.12
2022-09-12T01:13:54.219Z,971.09
2022-09-12T01:14:54.459Z,971.09
2022-09-12T01:15:54.710Z,971.09
2022-09-12T01:16:54.949Z,971.08
2022-09-12T01:17:55.189Z,971.09
2022-09-12T01:18:55.430Z,971.10
2022-09-12T01:19:55.679Z,971.07
2022-09-12T01:20:55.930Z,971.09
2022-09-12T01:21:56.182Z,971.07
2022-09-12T01:22:56.421Z,971.06
2022-09-12T01:23:56.671Z,971.01
2022-09-12T01:24:56.923Z,971.02
2022-09-12T01:25:57.152Z,971.01
2022-09-12T01:26:57.392Z,970.99
2022-09-12T01:27:57.633Z,971.00
2022-09-12T01:28:57.912Z,970.98
2022-09-12T01:29:58.154Z,970.98
2022-09-12T01:30:58.394Z,970.93
2022-09-12T01:31:58.710Z,970.93
2022-09-12T01:32:58.944Z,970.92
2022-09-12T01:33:59.184Z,970.90
2022-09-12T01:34:59.433Z,970.91
2022-09-12T01:35:59.672Z,970.90
2022-09-12T01:36:59.915Z,970.92
2022-09-12T01:38:00.147Z,970.90
2022-09-12T01:39:00.392Z,970.89
2022-09-12T01:40:00.677Z,970.89
2022-09-12T01:41:00.926Z,970.86
2022-09-12T01:42:01.175Z,970.83
2022-09-12T01:43:01.416Z,970.84
2022-09-12T01:44:01.652Z,970.85
2022-09-12T01:45:01.900Z,970.86
2022-09-12T01:46:02.197Z,970.82
2022-09-12T01:47:02.431Z,970.83
2022-09-12T01:48:02.669Z,970.82
2022-09-12T01:49:02.909Z,970.81
2022-09-12T01:50:03.149Z,970.79
2022-09-12T01:51:03.398Z,970.76
2022-09-12T01:52:03.639Z,970.78
2022-09-12T01:53:03.887Z,970.76
2022-09-12T01:54:04.120Z,970.75
2022-09-12T01:55:08.986Z,970.72
2022-09-12T01:56:05.608Z,970.76
2022-09-12T01:57:04.912Z,970.79
2022-09-12T01:58:05.151Z,970.78
2022-09-12T01:59:05.392Z,970.74
2022-09-12T02:00:05.641Z,970.74
2022-09-12T02:01:05.895Z,970.75
2022-09-12T02:02:06.156Z,970.74
2022-09-12T02:03:06.423Z,970.74
2022-09-12T02:04:06.663Z,970.72
2022-09-12T02:05:06.915Z,970.72
2022-09-12T02:06:07.153Z,970.70
2022-09-12T02:07:07.407Z,970.66
2022-09-12T02:08:07.645Z,970.64
2022-09-12T02:09:07.885Z,970.63
2022-09-12T02:10:08.125Z,970.62
2022-09-12T02:11:08.373Z,970.64
2022-09-12T02:12:08.606Z,970.60
2022-09-12T02:13:08.846Z,970.57
2022-09-12T02:14:09.088Z,970.59
2022-09-12T02:15:09.334Z,970.62
2022-09-12T02:16:09.621Z,970.62
2022-09-12T02:17:09.899Z,970.64
2022-09-12T02:18:10.137Z,970.63
2022-09-12T02:19:10.380Z,970.62
2022-09-12T02:20:17.664Z,970.63
2022-09-12T02:21:11.858Z,970.62
2022-09-12T02:22:11.159Z,970.63
2022-09-12T02:23:11.399Z,970.60
2022-09-12T02:24:11.640Z,970.58
2022-09-12T02:25:11.887Z,970.57
2022-09-12T02:26:12.129Z,970.62
2022-09-12T02:27:12.369Z,970.57
2022-09-12T02:28:12.620Z,970.51
2022-09-12T02:29:12.860Z,970.55
2022-09-12T02:30:13.102Z,970.55
2022-09-12T02:31:13.341Z,970.53
2022-09-12T02:32:13.582Z,970.51
2022-09-12T02:33:13.822Z,970.51
2022-09-12T02:34:14.062Z,970.51
2022-09-12T02:35:14.311Z,970.51
2022-09-12T02:36:14.543Z,970.56
2022-09-12T02:37:14.785Z,970.51
2022-09-12T02:38:15.031Z,970.52
2022-09-12T02:39:15.275Z,970.49
2022-09-12T02:40:15.602Z,970.51
2022-09-12T02:41:15.827Z,970.46
2022-09-12T02:42:16.063Z,970.49
2022-09-12T02:43:16.305Z,970.44
2022-09-12T02:44:16.547Z,970.44
2022-09-12T02:45:16.795Z,970.46
2022-09-12T02:46:17.036Z,970.42
2022-09-12T02:47:17.285Z,970.43
2022-09-12T02:48:17.534Z,970.45
2022-09-12T02:49:17.775Z,970.47
2022-09-12T02:50:18.017Z,970.49
2022-09-12T02:51:22.890Z,970.48
2022-09-12T02:52:19.487Z,970.49
2022-09-12T02:53:18.788Z,970.45
2022-09-12T02:54:19.028Z,970.46
2022-09-12T02:55:19.288Z,970.46
2022-09-12T02:56:19.529Z,970.50
2022-09-12T02:57:22.818Z,970.49
2022-09-12T02:58:20.119Z,970.47
2022-09-12T02:59:20.359Z,970.46
2022-09-12T03:00:20.607Z,970.46
2022-09-12T03:01:20.882Z,970.48
2022-09-12T03:02:21.134Z,970.45
2022-09-12T03:03:21.354Z,970.43
2022-09-12T03:04:21.591Z,970.47
2022-09-12T03:05:21.841Z,970.44
2022-09-12T03:06:23.024Z,970.42
2022-09-12T03:07:22.322Z,970.43
2022-09-12T03:08:22.562Z,970.41
2022-09-12T03:09:22.812Z,970.41
2022-09-12T03:10:23.053Z,970.44
2022-09-12T03:11:23.293Z,970.41
2022-09-12T03:12:23.533Z,970.45
2022-09-12T03:13:23.783Z,970.47
2022-09-12T03:14:24.023Z,970.45
2022-09-12T03:15:24.265Z,970.44
2022-09-12T03:16:24.513Z,970.41
2022-09-12T03:17:24.745Z,970.42
2022-09-12T03:18:24.985Z,970.43
2022-09-12T03:19:25.227Z,970.42
2022-09-12T03:20:25.474Z,970.45
2022-09-12T03:21:25.716Z,970.47
2022-09-12T03:22:25.957Z,970.43
2022-09-12T03:23:26.195Z,970.45
2022-09-12T03:24:26.447Z,970.45
2022-09-12T03:25:26.697Z,970.46
2022-09-12T03:26:26.949Z,970.44
2022-09-12T03:27:27.179Z,970.45
2022-09-12T03:28:27.427Z,970.43
2022-09-12T03:29:27.668Z,970.44
2022-09-12T03:30:27.985Z,970.44
2022-09-12T03:31:28.219Z,970.45
2022-09-12T03:32:28.459Z,970.42
2022-09-12T03:33:28.708Z,970.44
2022-09-12T03:34:28.950Z,970.41
2022-09-12T03:35:29.190Z,970.40
2022-09-12T03:36:29.440Z,970.39
2022-09-12T03:37:29.681Z,970.40
2022-09-12T03:38:29.931Z,970.41
2022-09-12T03:39:30.165Z,970.42
2022-09-12T03:40:30.411Z,970.45
2022-09-12T03:41:30.651Z,970.44
2022-09-12T03:42:30.892Z,970.37
2022-09-12T03:43:31.131Z,970.43
2022-09-12T03:44:31.372Z,970.39
2022-09-12T03:45:31.636Z,970.46
2022-09-12T03:46:31.862Z,970.41
2022-09-12T03:47:32.093Z,970.44
2022-09-12T03:48:32.334Z,970.42
2022-09-12T03:49:32.582Z,970.41
2022-09-12T03:50:32.828Z,970.38
2022-09-12T03:51:33.064Z,970.36
2022-09-12T03:52:33.306Z,970.35
2022-09-12T03:53:33.545Z,970.36
2022-09-12T03:54:33.806Z,970.36
2022-09-12T03:55:34.046Z,970.35
2022-09-12T03:56:34.286Z,970.37
2022-09-12T03:57:34.527Z,970.41
2022-09-12T03:58:34.771Z,970.41
2022-09-12T03:59:35.009Z,970.43
2022-09-12T04:00:35.257Z,970.43
2022-09-12T04:01:35.496Z,970.43
2022-09-12T04:02:35.778Z,970.45
2022-09-12T04:03:36.018Z,970.49
2022-09-12T04:04:36.261Z,970.45
2022-09-12T04:05:36.519Z,970.43
2022-09-12T04:06:36.769Z,970.51
2022-09-12T04:07:37.012Z,970.47
2022-09-12T04:08:37.250Z,970.48
2022-09-12T04:09:37.490Z,970.50
2022-09-12T04:10:37.738Z,970.48
2022-09-12T04:11:37.972Z,970.52
2022-09-12T04:12:38.214Z,970.52
2022-09-12T04:13:38.452Z,970.57
2022-09-12T04:14:38.701Z,970.57
2022-09-12T04:15:38.962Z,970.59
2022-09-12T04:16:39.251Z,970.55
2022-09-12T04:17:39.472Z,970.59
2022-09-12T04:18:39.713Z,970.55
2022-09-12T04:19:39.953Z,970.54
2022-09-12T04:20:40.195Z,970.54
2022-09-12T04:21:40.436Z,970.53
2022-09-12T04:22:40.675Z,970.52
2022-09-12T04:23:40.915Z,970.50
2022-09-12T04:24:41.155Z,970.49
2022-09-12T04:25:41.418Z,970.50
2022-09-12T04:26:41.676Z,970.48
2022-09-12T04:27:41.916Z,970.43
2022-09-12T04:28:42.271Z,970.46
2022-09-12T04:29:42.476Z,970.48
2022-09-12T04:30:42.751Z,970.45
2022-09-12T04:31:43.003Z,970.45
2022-09-12T04:32:43.228Z,970.49
2022-09-12T04:33:43.471Z,970.44
2022-09-12T04:34:43.707Z,970.44
2022-09-12T04:35:43.956Z,970.45
2022-09-12T04:36:44.199Z,970.45
2022-09-12T04:37:44.437Z,970.47
2022-09-12T04:38:44.678Z,970.50
2022-09-12T04:39:44.959Z,970.46
2022-09-12T04:40:45.192Z,970.46
2022-09-12T04:41:45.430Z,970.43
2022-09-12T04:42:45.670Z,970.45
2022-09-12T04:43:45.911Z,970.44
2022-09-12T04:44:46.150Z,970.41
2022-09-12T04:45:46.422Z,970.43
2022-09-12T04:46:46.679Z,970.41
2022-09-12T04:47:46.923Z,970.41
2022-09-12T04:48:47.325Z,970.40
2022-09-12T04:49:47.481Z,970.43
2022-09-12T04:50:47.724Z,970.43
2022-09-12T04:51:47.975Z,970.41
2022-09-12T04:52:48.213Z,970.45
2022-09-12T04:53:48.451Z,970.43
2022-09-12T04:54:48.693Z,970.46
2022-09-12T04:55:48.983Z,970.46
2022-09-12T04:56:49.227Z,970.48
2022-09-12T04:57:49.465Z,970.47
2022-09-12T04:58:49.705Z,970.47
2022-09-12T04:59:49.945Z,970.49
2022-09-12T05:00:50.194Z,970.53
2022-09-12T05:01:50.570Z,970.50
2022-09-12T05:02:50.687Z,970.50
2022-09-12T05:03:50.926Z,970.49
2022-09-12T05:04:51.206Z,970.50
2022-09-12T05:05:56.251Z,970.52
2022-09-12T05:06:52.746Z,970.48
2022-09-12T05:07:52.038Z,970.44
2022-09-12T05:08:52.303Z,970.46
2022-09-12T05:09:52.536Z,970.48
2022-09-12T05:10:52.778Z,970.48
2022-09-12T05:12:04.202Z,970.51
2022-09-12T05:12:54.249Z,970.52
2022-09-12T05:13:53.555Z,970.49
2022-09-12T05:14:53.830Z,970.50
2022-09-12T05:15:54.076Z,970.52
2022-09-12T05:16:54.371Z,970.51
2022-09-12T05:17:54.582Z,970.53
2022-09-12T05:18:54.831Z,970.52
2022-09-12T05:19:55.071Z,970.54
2022-09-12T05:20:55.324Z,970.56
2022-09-12T05:21:55.552Z,970.54
2022-09-12T05:22:55.803Z,970.56
2022-09-12T05:23:56.042Z,970.58
2022-09-12T05:24:56.292Z,970.60
2022-09-12T05:25:56.533Z,970.60
2022-09-12T05:26:56.773Z,970.61
2022-09-12T05:27:57.024Z,970.59
2022-09-12T05:28:57.274Z,970.62
2022-09-12T05:29:57.535Z,970.63
2022-09-12T05:30:57.841Z,970.65
2022-09-12T05:31:58.082Z,970.61
2022-09-12T05:32:58.335Z,970.69
2022-09-12T05:33:58.595Z,970.67
2022-09-12T05:34:58.886Z,970.69
2022-09-12T05:35:59.137Z,970.69
2022-09-12T05:36:59.396Z,970.64
2022-09-12T05:37:59.653Z,970.66
2022-09-12T05:38:59.905Z,970.66
2022-09-12T05:40:00.230Z,970.63
2022-09-12T05:41:00.468Z,970.63
2022-09-12T05:42:00.728Z,970.63
2022-09-12T05:43:00.978Z,970.61
2022-09-12T05:44:01.249Z,970.62
2022-09-12T05:45:01.511Z,970.62
2022-09-12T05:46:01.782Z,970.62
2022-09-12T05:47:02.049Z,970.64
2022-09-12T05:48:02.349Z,970.64
2022-09-12T05:49:02.670Z,970.65
2022-09-12T05:50:02.921Z,970.66
2022-09-12T05:51:03.200Z,970.71
2022-09-12T05:52:03.451Z,970.74
2022-09-12T05:53:03.751Z,970.69
2022-09-12T05:54:04.007Z,970.73
2022-09-12T05:55:04.261Z,970.72
2022-09-12T05:56:04.533Z,970.72
2022-09-12T05:57:04.792Z,970.78
2022-09-12T05:58:05.053Z,970.72
2022-09-12T05:59:05.321Z,970.71
2022-09-12T06:00:05.583Z,970.75
2022-09-12T06:01:05.895Z,970.73
2022-09-12T06:02:06.196Z,970.73
2022-09-12T06:03:06.455Z,970.72
2022-09-12T06:04:06.731Z,970.74
2022-09-12T06:05:06.994Z,970.70
2022-09-12T06:06:07.265Z,970.74
2022-09-12T06:07:07.563Z,970.71
2022-09-12T06:08:07.865Z,970.73
2022-09-12T06:09:08.144Z,970.71
2022-09-12T06:10:08.422Z,970.70
2022-09-12T06:11:08.696Z,970.73
2022-09-12T06:12:08.969Z,970.76
2022-09-12T06:13:09.258Z,970.75
2022-09-12T06:14:09.548Z,970.73
2022-09-12T06:15:09.818Z,970.73
2022-09-12T06:16:10.096Z,970.75
2022-09-12T06:17:10.379Z,970.72
2022-09-12T06:18:10.666Z,970.71
2022-09-12T06:19:10.938Z,970.74
2022-09-12T06:20:11.209Z,970.75
2022-09-12T06:21:11.518Z,970.76
2022-09-12T06:22:11.769Z,970.73
2022-09-12T06:23:12.039Z,970.73
2022-09-12T06:24:12.320Z,970.74
2022-09-12T06:25:12.591Z,970.72
2022-09-12T06:26:12.890Z,970.75
2022-09-12T06:27:13.171Z,970.76
2022-09-12T06:28:13.441Z,970.80
2022-09-12T06:29:13.738Z,970.73
2022-09-12T06:30:14.012Z,970.72
2022-09-12T06:31:14.325Z,970.67
2022-09-12T06:32:14.588Z,970.68
2022-09-12T06:33:14.854Z,970.71
2022-09-12T06:34:15.124Z,970.70
2022-09-12T06:35:15.393Z,970.70
2022-09-12T06:36:15.675Z,970.71
2022-09-12T06:37:15.944Z,970.68
2022-09-12T06:38:16.213Z,970.68
2022-09-12T06:39:16.485Z,970.64
2022-09-12T06:40:16.849Z,970.67
2022-09-12T06:41:17.084Z,970.64
2022-09-12T06:42:17.347Z,970.66
2022-09-12T06:43:17.632Z,970.64
2022-09-12T06:44:17.908Z,970.66
2022-09-12T06:45:18.176Z,970.65
2022-09-12T06:46:18.479Z,970.63
2022-09-12T06:47:18.736Z,970.67
2022-09-12T06:48:19.006Z,970.70
2022-09-12T06:49:19.277Z,970.68
2022-09-12T06:50:19.568Z,970.68
2022-09-12T06:51:19.877Z,970.68
2022-09-12T06:52:20.149Z,970.71
2022-09-12T06:53:20.428Z,970.69
2022-09-12T06:54:20.709Z,970.70
2022-09-12T06:55:23.582Z,970.73
2022-09-12T06:56:22.221Z,970.71
2022-09-12T06:57:21.558Z,970.69
2022-09-12T06:58:21.829Z,970.71
2022-09-12T06:59:22.099Z,970.76
2022-09-12T07:00:22.361Z,970.76
2022-09-12T07:01:22.708Z,970.73
2022-09-12T07:02:22.976Z,970.74
2022-09-12T07:03:23.231Z,970.72
2022-09-12T07:04:23.502Z,970.72
2022-09-12T07:05:23.780Z,970.72
2022-09-12T07:06:24.053Z,970.73
2022-09-12T07:07:24.322Z,970.72
2022-09-12T07:08:24.600Z,970.72
2022-09-12T07:09:24.873Z,970.69
2022-09-12T07:10:25.167Z,970.74
2022-09-12T07:11:25.493Z,970.70
2022-09-12T07:12:25.775Z,970.71
2022-09-12T07:13:26.063Z,970.70
2022-09-12T07:14:26.354Z,970.72
2022-09-12T07:15:26.632Z,970.73
2022-09-12T07:16:26.957Z,970.73
2022-09-12T07:17:27.218Z,970.71
2022-09-12T07:18:27.485Z,970.73
2022-09-12T07:19:27.767Z,970.73
2022-09-12T07:20:28.034Z,970.73
2022-09-12T07:21:28.323Z,970.71
2022-09-12T07:22:28.595Z,970.72
2022-09-12T07:23:28.868Z,970.73
2022-09-12T07:24:29.138Z,970.70
2022-09-12T07:25:29.417Z,970.70
2022-09-12T07:26:29.708Z,970.68
2022-09-12T07:27:29.970Z,970.70
2022-09-12T07:28:30.248Z,970.69
2022-09-12T07:29:37.113Z,970.67
2022-09-12T07:30:31.792Z,970.72
2022-09-12T07:31:31.109Z,970.67
2022-09-12T07:32:31.401Z,970.64
2022-09-12T07:33:31.680Z,970.65
2022-09-12T07:34:31.984Z,970.66
2022-09-12T07:35:32.282Z,970.64
2022-09-12T07:36:32.550Z,970.64
2022-09-12T07:37:32.819Z,970.63
2022-09-12T07:38:33.092Z,970.66
2022-09-12T07:39:33.363Z,970.66
2022-09-12T07:40:33.662Z,970.67
2022-09-12T07:41:33.966Z,970.65
2022-09-12T07:42:34.222Z,970.63
2022-09-12T07:43:34.529Z,970.62
2022-09-12T07:44:34.781Z,970.61
2022-09-12T07:45:35.149Z,970.65
2022-09-12T07:46:35.296Z,970.61
2022-09-12T07:47:35.574Z,970.61
2022-09-12T07:48:35.844Z,970.63
2022-09-12T07:49:36.115Z,970.63
2022-09-12T07:50:36.394Z,970.63
2022-09-12T07:51:36.666Z,970.62
2022-09-12T07:52:36.938Z,970.62
2022-09-12T07:53:37.207Z,970.61
2022-09-12T07:54:37.485Z,970.68
2022-09-12T07:55:37.766Z,970.66
2022-09-12T07:56:39.321Z,970.70
2022-09-12T07:57:38.316Z,970.69
2022-09-12T07:58:38.587Z,970.69
2022-09-12T07:59:52.633Z,970.68
2022-09-12T08:00:40.158Z,970.65
2022-09-12T08:01:39.430Z,970.66
2022-09-12T08:02:39.806Z,970.65
2022-09-12T08:03:39.907Z,970.66
2022-09-12T08:04:40.179Z,970.67
2022-09-12T08:05:40.450Z,970.70
2022-09-12T08:06:40.730Z,970.66
2022-09-12T08:07:41.000Z,970.69
2022-09-12T08:08:41.283Z,970.66
2022-09-12T08:09:41.551Z,970.68
2022-09-12T08:10:41.840Z,970.68
2022-09-12T08:11:42.130Z,970.68
2022-09-12T08:12:42.402Z,970.65
2022-09-12T08:13:42.695Z,970.63
2022-09-12T08:14:42.952Z,970.63
2022-09-12T08:15:43.299Z,970.68
2022-09-12T08:16:43.552Z,970.65
2022-09-12T08:17:43.824Z,970.65
2022-09-12T08:18:44.101Z,970.65
2022-09-12T08:19:44.374Z,970.69
2022-09-12T08:20:44.643Z,970.70
2022-09-12T08:21:44.925Z,970.73
2022-09-12T08:22:45.194Z,970.69
2022-09-12T08:23:45.515Z,970.69
2022-09-12T08:24:45.795Z,970.71
2022-09-12T08:25:46.065Z,970.70
2022-09-12T08:26:46.355Z,970.70
2022-09-12T08:27:46.643Z,970.68
2022-09-12T08:28:46.918Z,970.70
2022-09-12T08:29:47.186Z,970.70
2022-09-12T08:30:47.465Z,970.71
2022-09-12T08:31:47.727Z,970.67
2022-09-12T08:32:48.037Z,970.69
2022-09-12T08:33:48.443Z,970.69
2022-09-12T08:34:48.547Z,970.67
2022-09-12T08:35:48.818Z,970.66
2022-09-12T08:36:49.107Z,970.67
2022-09-12T08:37:49.369Z,970.63
2022-09-12T08:38:49.639Z,970.61
2022-09-12T08:39:49.997Z,970.60
2022-09-12T08:40:50.249Z,970.59
2022-09-12T08:41:50.529Z,970.58
2022-09-12T08:42:50.810Z,970.58
2022-09-12T08:43:53.294Z,970.58
2022-09-12T08:44:52.351Z,970.54
2022-09-12T08:45:51.754Z,970.57
2022-09-12T08:46:52.042Z,970.60
2022-09-12T08:47:52.311Z,970.59
2022-09-12T08:48:52.583Z,970.57
2022-09-12T08:49:52.871Z,970.58
2022-09-12T08:50:53.152Z,970.58
2022-09-12T08:51:53.434Z,970.58
2022-09-12T08:52:53.703Z,970.54
2022-09-12T08:53:53.976Z,970.56
2022-09-12T08:54:54.244Z,970.54
2022-09-12T08:55:54.515Z,970.57
2022-09-12T08:56:54.805Z,970.56
2022-09-12T08:57:56.034Z,970.51
2022-09-12T08:58:55.365Z,970.53
2022-09-12T08:59:55.633Z,970.55
2022-09-12T09:00:55.903Z,970.56
2022-09-12T09:01:56.214Z,970.55
2022-09-12T09:02:56.532Z,970.57
2022-09-12T09:03:56.816Z,970.57
2022-09-12T09:04:57.088Z,970.55
2022-09-12T09:05:57.373Z,970.57
2022-09-12T09:06:57.647Z,970.55
2022-09-12T09:07:57.919Z,970.55
2022-09-12T09:08:58.198Z,970.53
2022-09-12T09:09:58.489Z,970.55
2022-09-12T09:10:58.758Z,970.54
2022-09-12T09:11:59.038Z,970.56
2022-09-12T09:12:59.309Z,970.53
2022-09-12T09:14:03.111Z,970.54
2022-09-12T09:15:00.840Z,970.50
2022-09-12T09:16:00.231Z,970.55
2022-09-12T09:17:00.522Z,970.52
2022-09-12T09:18:00.790Z,970.48
2022-09-12T09:19:01.070Z,970.50
2022-09-12T09:20:01.353Z,970.48
2022-09-12T09:21:01.646Z,970.45
2022-09-12T09:22:01.911Z,970.48
2022-09-12T09:23:02.182Z,970.45
2022-09-12T09:24:02.454Z,970.47
2022-09-12T09:25:02.730Z,970.45
2022-09-12T09:26:02.996Z,970.45
2022-09-12T09:27:03.274Z,970.40
2022-09-12T09:28:03.546Z,970.40
2022-09-12T09:29:03.814Z,970.39
2022-09-12T09:30:04.084Z,970.40
2022-09-12T09:31:04.415Z,970.37
2022-09-12T09:32:04.685Z,970.40
2022-09-12T09:33:04.963Z,970.34
2022-09-12T09:34:05.234Z,970.33
2022-09-12T09:35:05.506Z,970.30
2022-09-12T09:36:05.786Z,970.27
2022-09-12T09:37:06.066Z,970.28
2022-09-12T09:38:06.338Z,970.33
2022-09-12T09:39:06.607Z,970.30
2022-09-12T09:40:07.019Z,970.33
2022-09-12T09:41:07.150Z,970.31
2022-09-12T09:42:07.418Z,970.31
2022-09-12T09:43:07.718Z,970.35
2022-09-12T09:45:08.239Z,970.25
2022-09-12T09:46:08.577Z,970.24
2022-09-12T09:47:08.839Z,970.24
2022-09-12T09:48:09.110Z,970.23
2022-09-12T09:49:09.400Z,970.18
2022-09-12T09:50:09.651Z,970.23
2022-09-12T09:51:09.922Z,970.20
2022-09-12T09:52:10.201Z,970.17
2022-09-12T09:53:10.471Z,970.19
2022-09-12T09:54:10.745Z,970.19
2022-09-12T09:55:11.011Z,970.22
2022-09-12T09:56:11.280Z,970.17
2022-09-12T09:57:11.554Z,970.20
2022-09-12T09:58:11.823Z,970.17
2022-09-12T09:59:12.100Z,970.15
2022-09-12T10:00:12.374Z,970.17
2022-09-12T10:01:12.685Z,970.17
2022-09-12T10:02:12.988Z,970.17
2022-09-12T10:03:14.111Z,970.13
2022-09-12T10:04:13.595Z,970.13
2022-09-12T10:05:13.864Z,970.13
2022-09-12T10:06:14.132Z,970.13
2022-09-12T10:07:14.407Z,970.13
2022-09-12T10:08:14.675Z,970.09
2022-09-12T10:09:14.946Z,970.08
2022-09-12T10:10:15.217Z,970.08
2022-09-12T10:11:15.496Z,970.09
2022-09-12T10:12:15.767Z,970.07
2022-09-12T10:13:16.048Z,970.08
2022-09-12T10:14:16.318Z,970.10
2022-09-12T10:15:16.596Z,970.12
2022-09-12T10:16:16.885Z,970.10
2022-09-12T10:17:17.174Z,970.07
2022-09-12T10:18:17.439Z,970.06
2022-09-12T10:19:17.711Z,970.06
2022-09-12T10:20:21.443Z,970.04
2022-09-12T10:21:18.257Z,970.03
2022-09-12T10:22:18.530Z,970.04
2022-09-12T10:23:18.807Z,970.07
2022-09-12T10:24:19.081Z,970.08
2022-09-12T10:25:19.342Z,970.03
2022-09-12T10:26:19.612Z,970.02
2022-09-12T10:27:19.881Z,970.03
2022-09-12T10:28:20.161Z,969.96
2022-09-12T10:29:20.420Z,969.99
2022-09-12T10:30:20.676Z,969.95
2022-09-12T10:31:20.933Z,969.95
2022-09-12T10:32:21.194Z,969.91
2022-09-12T10:33:21.483Z,969.97
2022-09-12T10:34:21.748Z,969.90
2022-09-12T10:35:21.998Z,969.90
2022-09-12T10:36:22.245Z,969.89
2022-09-12T10:37:22.505Z,969.90
2022-09-12T10:38:22.769Z,969.85
2022-09-12T10:39:23.025Z,969.91
2022-09-12T10:40:23.317Z,969.82
2022-09-12T10:41:23.586Z,969.89
2022-09-12T10:42:23.847Z,969.86
2022-09-12T10:43:24.096Z,969.82
2022-09-12T10:44:24.355Z,969.86
2022-09-12T10:45:24.614Z,969.88
2022-09-12T10:46:24.921Z,969.88
2022-09-12T10:47:25.200Z,969.92
2022-09-12T10:48:25.467Z,969.91
2022-09-12T10:49:25.773Z,969.89
2022-09-12T10:50:25.999Z,969.84
2022-09-12T10:51:26.262Z,969.85
2022-09-12T10:52:26.527Z,969.89
2022-09-12T10:53:28.996Z,969.86
2022-09-12T10:54:28.010Z,969.89
2022-09-12T10:55:27.345Z,969.89
2022-09-12T10:56:27.592Z,969.89
2022-09-12T10:57:27.853Z,969.92
2022-09-12T10:58:28.112Z,969.88
2022-09-12T10:59:28.371Z,969.91
2022-09-12T11:00:28.622Z,969.86
2022-09-12T11:01:28.925Z,969.88
2022-09-12T11:02:29.221Z,969.87
2022-09-12T11:03:29.451Z,969.87
2022-09-12T11:04:29.723Z,969.84
2022-09-12T11:05:29.983Z,969.83
2022-09-12T11:06:30.244Z,969.79
2022-09-12T11:07:30.514Z,969.82
2022-09-12T11:08:30.774Z,969.79
2022-09-12T11:09:31.035Z,969.76
2022-09-12T11:10:36.342Z,969.74
2022-09-12T11:11:32.546Z,969.78
2022-09-12T11:12:31.866Z,969.76
2022-09-12T11:13:32.183Z,969.74
2022-09-12T11:14:32.436Z,969.69
2022-09-12T11:15:32.739Z,969.68
2022-09-12T11:16:32.966Z,969.64
2022-09-12T11:17:33.237Z,969.66
2022-09-12T11:18:33.487Z,969.68
2022-09-12T11:19:33.761Z,969.62
2022-09-12T11:20:34.026Z,969.63
2022-09-12T11:21:34.278Z,969.60
2022-09-12T11:22:34.539Z,969.64
2022-09-12T11:23:34.789Z,969.66
2022-09-12T11:24:35.059Z,969.69
2022-09-12T11:25:35.323Z,969.65
2022-09-12T11:26:35.580Z,969.68
2022-09-12T11:27:35.850Z,969.69
2022-09-12T11:28:36.119Z,969.65
2022-09-12T11:29:36.381Z,969.65
2022-09-12T11:30:36.618Z,969.70
2022-09-12T11:31:36.872Z,969.74
2022-09-12T11:32:37.131Z,969.70
2022-09-12T11:33:42.221Z,969.70
2022-09-12T11:34:38.663Z,969.71
2022-09-12T11:35:37.976Z,969.72
2022-09-12T11:36:38.231Z,969.64
2022-09-12T11:37:38.494Z,969.62
2022-09-12T11:38:38.763Z,969.60
2022-09-12T11:39:39.062Z,969.55
2022-09-12T11:40:39.344Z,969.59
2022-09-12T11:41:39.595Z,969.57
2022-09-12T11:42:39.858Z,969.52
2022-09-12T11:43:40.120Z,969.50
2022-09-12T11:44:40.464Z,969.52
2022-09-12T11:45:40.692Z,969.50
2022-09-12T11:46:40.955Z,969.48
2022-09-12T11:47:41.245Z,969.48
2022-09-12T11:48:41.590Z,969.45
2022-09-12T11:49:41.828Z,969.44
2022-09-12T11:50:42.087Z,969.46
2022-09-12T11:51:42.350Z,969.45
2022-09-12T11:52:42.617Z,969.49
2022-09-12T11:53:42.925Z,969.45
2022-09-12T11:54:43.166Z,969.46
2022-09-12T11:55:43.419Z,969.44
2022-09-12T11:56:43.686Z,969.39
2022-09-12T11:57:43.946Z,969.45
2022-09-12T11:58:44.199Z,969.44
2022-09-12T11:59:44.485Z,969.40
2022-09-12T12:00:44.728Z,969.50
2022-09-12T12:01:48.567Z,969.51
2022-09-12T12:02:45.271Z,969.47
2022-09-12T12:03:45.547Z,969.49
2022-09-12T12:04:45.780Z,969.50
2022-09-12T12:05:46.033Z,969.46
2022-09-12T12:06:46.293Z,969.45
2022-09-12T12:07:46.553Z,969.47
2022-09-12T12:08:46.935Z,969.48
2022-09-12T12:09:47.045Z,969.44
2022-09-12T12:10:47.315Z,969.46
2022-09-12T12:11:47.584Z,969.47
2022-09-12T12:12:47.849Z,969.43
2022-09-12T12:13:48.105Z,969.45
2022-09-12T12:14:48.365Z,969.41
2022-09-12T12:15:48.677Z,969.40
2022-09-12T12:16:48.917Z,969.43
2022-09-12T12:17:49.176Z,969.42
2022-09-12T12:18:49.426Z,969.42
2022-09-12T12:19:49.687Z,969.42
2022-09-12T12:20:49.947Z,969.41
2022-09-12T12:21:50.207Z,969.39
2022-09-12T12:22:50.467Z,969.42
2022-09-12T12:23:50.728Z,969.39
2022-09-12T12:24:50.995Z,969.38
2022-09-12T12:25:51.249Z,969.35
2022-09-12T12:26:51.508Z,969.35
2022-09-12T12:27:51.770Z,969.32
2022-09-12T12:28:52.030Z,969.29
2022-09-12T12:29:52.281Z,969.30
2022-09-12T12:30:52.601Z,969.32
2022-09-12T12:31:52.830Z,969.32
2022-09-12T12:32:53.091Z,969.34